Time;durP1;ratioP1;P1;durP2;ratioP2;P2;SDS_P1;SDS_P2;PMS_P1;PMS_P2;Temp;Humidity;BMP_temperature;BMP_pressure;BME280_temperature;BME280_humidity;BME280_pressure;Samples;Min_cycle;Max_cycle;Signal;HPM_P1;HPM_P2
2022/07/05 00:01:39;;;;;;;2.55;1.20;;;;;;;21.29;45.37;102046.41;5094567;28;20080;-62
2022/07/05 00:04:07;;;;;;;4.47;1.30;;;;;;;21.29;45.63;102046.41;5093098;28;20459;-62
2022/07/05 00:06:35;;;;;;;2.95;1.30;;;;;;;21.28;45.49;102049.41;5094843;28;20352;-62
2022/07/05 00:09:03;;;;;;;2.42;1.45;;;;;;;21.25;45.60;102044.47;5095901;28;20116;-62
2022/07/05 00:11:31;;;;;;;2.90;1.40;;;;;;;21.25;45.69;102036.28;5102788;28;20111;-62
2022/07/05 00:13:59;;;;;;;5.25;1.52;;;;;;;21.23;45.74;102044.75;5107144;28;20079;-62
2022/07/05 00:16:26;;;;;;;2.30;1.20;;;;;;;21.22;45.75;102047.75;5097823;28;20059;-62
2022/07/05 00:18:55;;;;;;;3.42;1.40;;;;;;;21.21;45.76;102043.34;5104823;28;20051;-62
2022/07/05 00:21:23;;;;;;;1.92;1.23;;;;;;;21.19;45.86;102054.53;5104676;28;20048;-62
2022/07/05 00:23:51;;;;;;;2.25;1.10;;;;;;;21.17;45.84;102044.94;5115832;28;20075;-63
2022/07/05 00:26:19;;;;;;;3.65;1.35;;;;;;;21.16;45.95;102049.59;5102582;28;20139;-63
2022/07/05 00:28:46;;;;;;;4.65;1.75;;;;;;;21.15;46.14;102045.22;5104904;28;20075;-62
2022/07/05 00:31:14;;;;;;;1.60;1.20;;;;;;;21.13;45.98;102047.38;5103794;28;20048;-62
2022/07/05 00:33:42;;;;;;;7.80;1.55;;;;;;;21.11;46.17;102046.81;5109330;28;20053;-62
2022/07/05 00:36:11;;;;;;;2.45;1.42;;;;;;;21.09;46.32;102038.88;5085883;28;20060;-62
2022/07/05 00:38:39;;;;;;;3.65;1.70;;;;;;;21.06;46.28;102039.41;5109959;28;20119;-63
2022/07/05 00:41:07;;;;;;;2.20;1.40;;;;;;;21.04;46.41;102033.38;5100181;28;20072;-62
2022/07/05 00:43:34;;;;;;;3.78;1.20;;;;;;;21.03;46.50;102036.38;5097849;28;20121;-62
2022/07/05 00:46:02;;;;;;;4.15;1.10;;;;;;;20.99;46.49;102043.44;5093739;28;20167;-62
2022/07/05 00:48:30;;;;;;;4.22;2.25;;;;;;;20.98;46.55;102034.44;5092100;28;20112;-64
2022/07/05 00:50:58;;;;;;;4.05;1.30;;;;;;;20.96;46.53;102036.59;5101469;28;20052;-62
2022/07/05 00:53:28;;;;;;;2.40;2.03;;;;;;;20.94;46.58;102037.94;5111347;28;20047;-62
2022/07/05 00:55:57;;;;;;;2.05;1.20;;;;;;;20.91;46.58;102035.75;5085440;28;20052;-62
2022/07/05 00:58:25;;;;;;;2.25;1.50;;;;;;;20.89;46.67;102038.72;5084310;28;20063;-62
2022/07/05 01:00:53;;;;;;;4.28;1.85;;;;;;;20.88;46.72;102048.03;5085821;28;20044;-62
2022/07/05 01:03:21;;;;;;;2.42;1.88;;;;;;;20.87;46.82;102040.09;5097212;28;20136;-62
2022/07/05 01:05:49;;;;;;;4.05;1.30;;;;;;;20.86;46.79;102044.72;5097590;28;20044;-62
2022/07/05 01:08:17;;;;;;;3.13;1.38;;;;;;;20.83;46.83;102038.97;5109411;28;20049;-62
2022/07/05 01:10:47;;;;;;;2.97;1.58;;;;;;;20.81;46.96;102041.94;5095539;28;20052;-63
2022/07/05 01:13:15;;;;;;;3.65;1.60;;;;;;;20.79;46.96;102042.25;5094826;28;20055;-62
2022/07/05 01:15:43;;;;;;;3.70;1.85;;;;;;;20.77;47.03;102043.59;5102005;28;20044;-62
2022/07/05 01:18:11;;;;;;;2.63;1.45;;;;;;;20.76;47.09;102040.03;5099794;28;20044;-62
2022/07/05 01:20:40;;;;;;;1.95;1.30;;;;;;;20.74;47.13;102046.84;5095412;28;20086;-63
2022/07/05 01:23:09;;;;;;;3.60;1.35;;;;;;;20.71;47.01;102031.78;5106621;28;20083;-62
2022/07/05 01:25:37;;;;;;;3.25;1.52;;;;;;;20.70;47.06;102035.59;5092682;28;20055;-63
2022/07/05 01:28:05;;;;;;;1.40;1.20;;;;;;;20.67;47.17;102033.41;5097278;28;20086;-63
2022/07/05 01:30:35;;;;;;;2.65;1.50;;;;;;;20.65;47.01;102038.31;5094051;28;20083;-62
2022/07/05 01:33:06;;;;;;;3.63;1.88;;;;;;;20.64;47.21;102046.75;5086043;28;20052;-62
2022/07/05 01:35:35;;;;;;;2.42;1.45;;;;;;;20.61;47.41;102033.63;5085574;28;20144;-63
2022/07/05 01:38:02;;;;;;;2.97;1.55;;;;;;;20.61;47.36;102031.72;5102847;28;20079;-63
2022/07/05 01:40:32;;;;;;;2.88;1.45;;;;;;;20.60;47.40;102043.72;5096104;28;20055;-62
2022/07/05 01:43:00;;;;;;;2.85;1.70;;;;;;;20.59;47.31;102049.44;5099724;28;20079;-62
2022/07/05 01:45:41;;;;;;;5.13;1.63;;;;;;;20.57;47.33;102043.41;5087782;28;20532;-62
2022/07/05 01:48:11;;;;;;;3.58;1.40;;;;;;;20.56;47.59;102045.31;5114979;28;20055;-63
2022/07/05 01:50:42;;;;;;;2.50;1.60;;;;;;;20.54;47.64;102042.03;5092390;28;20087;-62
2022/07/05 01:53:15;;;;;;;2.90;1.52;;;;;;;20.53;47.58;102045.00;5096905;28;20063;-62
2022/07/05 01:55:44;;;;;;;2.30;1.38;;;;;;;20.51;47.69;102044.44;5102901;28;20048;-62
2022/07/05 01:58:12;;;;;;;3.22;1.60;;;;;;;20.50;47.63;102042.81;5083246;28;20040;-63
2022/07/05 02:00:45;;;;;;;2.33;1.30;;;;;;;20.37;47.64;102023.00;5096712;28;20355;-62
2022/07/05 02:03:13;;;;;;;2.10;1.38;;;;;;;20.47;47.54;102044.13;5086600;28;20051;-62
2022/07/05 02:05:42;;;;;;;2.20;1.30;;;;;;;20.45;47.71;102041.66;5098151;28;20124;-63
2022/07/05 02:08:10;;;;;;;3.38;1.63;;;;;;;20.44;47.85;102044.66;5083632;28;20084;-62
2022/07/05 02:10:39;;;;;;;2.83;1.70;;;;;;;20.42;47.91;102042.19;5104290;28;20044;-62
2022/07/05 02:13:09;;;;;;;3.75;1.98;;;;;;;20.40;47.76;102035.34;5095283;28;20067;-62
2022/07/05 02:15:38;;;;;;;3.95;1.45;;;;;;;20.39;47.87;102039.16;5100386;28;20045;-62
2022/07/05 02:18:07;;;;;;;3.45;1.35;;;;;;;20.36;48.09;102047.81;5097798;28;20044;-62
2022/07/05 02:20:38;;;;;;;7.28;1.98;;;;;;;20.35;47.93;102040.72;5104002;28;20068;-62
2022/07/05 02:23:07;;;;;;;2.70;1.60;;;;;;;20.34;48.10;102047.25;5089780;28;20081;-62
2022/07/05 02:25:35;;;;;;;3.95;1.52;;;;;;;20.31;47.87;102040.41;5100241;28;20113;-62
2022/07/05 02:28:03;;;;;;;2.65;1.83;;;;;;;20.29;48.16;102037.09;5086378;28;20155;-62
2022/07/05 02:30:32;;;;;;;5.10;1.95;;;;;;;20.27;47.96;102038.44;5107697;28;20481;-62
2022/07/05 02:33:00;;;;;;;5.90;2.00;;;;;;;20.26;48.23;102042.25;5096788;28;20044;-62
2022/07/05 02:35:28;;;;;;;3.75;1.50;;;;;;;20.23;48.18;102045.50;5107887;28;20063;-62
2022/07/05 02:37:56;;;;;;;3.50;1.90;;;;;;;20.22;48.19;102041.13;5090723;28;20047;-62
2022/07/05 02:40:23;;;;;;;4.28;2.05;;;;;;;20.19;48.24;102042.47;5107630;28;20047;-62
2022/07/05 02:42:51;;;;;;;4.70;1.65;;;;;;;20.18;48.42;102051.75;5090815;28;20063;-62
2022/07/05 02:45:19;;;;;;;5.03;2.13;;;;;;;20.14;48.31;102043.22;5098648;28;20079;-62
2022/07/05 02:47:48;;;;;;;2.75;1.80;;;;;;;20.14;48.30;102045.97;5101248;28;20433;-62
2022/07/05 02:50:16;;;;;;;4.85;1.52;;;;;;;20.12;48.37;102041.84;5097671;28;20509;-62
2022/07/05 02:52:44;;;;;;;2.28;1.80;;;;;;;20.10;48.49;102050.28;5088492;28;20059;-62
2022/07/05 02:55:12;;;;;;;2.53;2.03;;;;;;;20.09;48.68;102051.38;5104922;28;20044;-61
2022/07/05 02:57:39;;;;;;;2.53;1.80;;;;;;;20.07;48.62;102049.97;5101398;28;20048;-62
2022/07/05 03:00:08;;;;;;;2.85;1.77;;;;;;;20.03;48.71;102052.38;5096667;28;20056;-61
2022/07/05 03:02:36;;;;;;;3.35;1.63;;;;;;;20.04;48.67;102047.75;5103336;28;20040;-61
2022/07/05 03:05:06;;;;;;;4.18;1.65;;;;;;;20.00;48.79;102052.91;5102166;28;20098;-62
2022/07/05 03:07:34;;;;;;;2.72;1.80;;;;;;;19.98;48.62;102052.34;5090334;28;20055;-61
2022/07/05 03:10:01;;;;;;;2.97;1.63;;;;;;;19.98;48.62;102051.50;5096690;28;20055;-61
2022/07/05 03:12:29;;;;;;;3.42;1.70;;;;;;;19.96;48.76;102048.22;5104823;28;20055;-63
2022/07/05 03:14:57;;;;;;;2.45;1.77;;;;;;;19.95;48.87;102043.84;5103504;28;20138;-63
2022/07/05 03:17:25;;;;;;;3.88;1.73;;;;;;;19.93;48.90;102052.28;5090444;28;20041;-62
2022/07/05 03:19:52;;;;;;;4.25;1.88;;;;;;;19.92;48.73;102049.78;5102500;28;20355;-63
2022/07/05 03:22:21;;;;;;;5.10;1.95;;;;;;;19.91;49.12;102048.16;5107748;28;20133;-63
2022/07/05 03:24:49;;;;;;;3.42;2.08;;;;;;;19.90;48.92;102058.25;5105206;28;20050;-62
2022/07/05 03:27:17;;;;;;;2.95;2.03;;;;;;;19.89;49.00;102050.31;5097306;28;20088;-62
2022/07/05 03:29:45;;;;;;;2.63;1.85;;;;;;;19.88;49.12;102045.94;5082915;28;20098;-63
2022/07/05 03:32:13;;;;;;;5.03;2.25;;;;;;;19.85;49.17;102043.72;5094174;28;20076;-63
2022/07/05 03:34:41;;;;;;;5.47;2.30;;;;;;;19.85;49.29;102054.63;5092114;28;20048;-63
2022/07/05 03:37:09;;;;;;;3.83;1.90;;;;;;;19.83;49.13;102055.69;5103040;28;20086;-62
2022/07/05 03:39:38;;;;;;;2.65;1.80;;;;;;;19.83;48.98;102052.16;5088090;28;20081;-63
2022/07/05 03:42:06;;;;;;;5.35;1.90;;;;;;;19.82;49.17;102053.22;5090602;28;20052;-62
2022/07/05 03:44:34;;;;;;;3.55;2.25;;;;;;;19.80;49.20;102063.56;5100967;28;20077;-62
2022/07/05 03:47:02;;;;;;;3.92;1.88;;;;;;;19.78;49.15;102068.47;5097857;28;20045;-63
2022/07/05 03:49:30;;;;;;;3.45;2.47;;;;;;;19.77;49.39;102072.25;5102487;28;20079;-62
2022/07/05 03:51:57;;;;;;;5.68;2.65;;;;;;;19.74;49.28;102076.31;5095053;28;20086;-62
2022/07/05 03:54:25;;;;;;;4.13;2.38;;;;;;;19.73;49.30;102068.38;5093326;28;20048;-63
2022/07/05 03:56:54;;;;;;;5.82;3.15;;;;;;;19.72;49.26;102077.66;5099747;28;20048;-62
2022/07/05 03:59:22;;;;;;;5.60;2.33;;;;;;;19.70;49.29;102077.91;5088555;28;20090;-62
2022/07/05 04:01:50;;;;;;;5.68;2.40;;;;;;;19.70;49.09;102079.81;5104153;28;20051;-62
2022/07/05 04:04:17;;;;;;;4.72;2.40;;;;;;;19.68;49.33;102084.69;5104408;28;20048;-62
2022/07/05 04:06:45;;;;;;;3.45;2.25;;;;;;;19.66;49.30;102093.13;5106467;28;20052;-63
2022/07/05 04:09:13;;;;;;;4.22;2.47;;;;;;;19.65;49.47;102086.00;5100479;28;20044;-62
2022/07/05 04:11:41;;;;;;;5.28;2.40;;;;;;;19.63;49.26;102088.16;5111560;28;20080;-62
2022/07/05 04:14:10;;;;;;;3.75;2.67;;;;;;;19.62;49.60;102091.97;5091370;28;20090;-63
2022/07/05 04:16:38;;;;;;;4.60;2.63;;;;;;;19.57;49.44;102081.00;5105977;28;20087;-62
2022/07/05 04:19:05;;;;;;;5.97;2.78;;;;;;;19.60;49.42;102101.47;5092371;28;20078;-63
2022/07/05 04:21:33;;;;;;;3.40;2.30;;;;;;;19.59;49.32;102095.22;5109427;28;20075;-62
2022/07/05 04:24:01;;;;;;;6.88;2.28;;;;;;;19.59;49.37;102094.38;5105202;28;20059;-62
2022/07/05 04:26:29;;;;;;;8.18;2.88;;;;;;;19.56;49.54;102092.16;5106654;28;20139;-62
2022/07/05 04:28:56;;;;;;;2.75;2.20;;;;;;;19.54;49.51;102092.41;5101758;28;20076;-62
2022/07/05 04:31:25;;;;;;;6.25;2.80;;;;;;;19.54;49.60;102094.31;5103339;28;20076;-62
2022/07/05 04:33:53;;;;;;;4.10;2.95;;;;;;;19.52;49.76;102107.38;5104262;28;20052;-62
2022/07/05 04:36:21;;;;;;;4.18;2.70;;;;;;;19.50;49.78;102110.31;5097204;28;20122;-62
2022/07/05 04:38:49;;;;;;;4.10;2.80;;;;;;;19.49;49.65;102106.75;5096859;28;20495;-62
2022/07/05 04:41:16;;;;;;;4.53;2.85;;;;;;;19.48;49.42;102109.75;5100361;28;20051;-62
2022/07/05 04:43:44;;;;;;;7.15;3.13;;;;;;;19.46;49.69;102112.72;5094183;28;20048;-62
2022/07/05 04:46:12;;;;;;;5.85;3.03;;;;;;;19.46;49.47;102118.16;5104970;28;20119;-62
2022/07/05 04:48:41;;;;;;;7.13;3.17;;;;;;;19.44;49.76;102108.59;5099683;28;20101;-62
2022/07/05 04:51:09;;;;;;;3.80;2.75;;;;;;;19.41;49.63;102093.56;5102173;28;20055;-62
2022/07/05 04:53:37;;;;;;;4.50;3.00;;;;;;;19.42;49.65;102102.56;5103800;28;20056;-62
2022/07/05 04:56:06;;;;;;;5.32;3.05;;;;;;;19.41;49.72;102101.72;5087797;28;20056;-62
2022/07/05 04:58:34;;;;;;;4.55;2.60;;;;;;;19.40;49.65;102105.53;5092552;28;20489;-63
2022/07/05 05:01:01;;;;;;;3.50;2.38;;;;;;;19.40;49.50;102105.53;5103660;28;20044;-63
2022/07/05 05:03:29;;;;;;;5.55;2.72;;;;;;;19.40;49.53;102091.09;5105888;28;20078;-63
2022/07/05 05:05:58;;;;;;;5.43;2.80;;;;;;;19.39;49.58;102098.44;5101361;28;20048;-62
2022/07/05 05:08:26;;;;;;;4.28;2.30;;;;;;;19.40;49.67;102100.09;5105620;28;20101;-62
2022/07/05 05:10:54;;;;;;;3.33;2.35;;;;;;;19.41;49.58;102098.19;5092921;28;20056;-62
2022/07/05 05:13:21;;;;;;;3.83;2.85;;;;;;;19.41;49.71;102100.91;5090129;28;20076;-63
2022/07/05 05:15:49;;;;;;;4.88;2.75;;;;;;;19.41;49.72;102106.38;5103216;28;20044;-64
2022/07/05 05:18:18;;;;;;;4.22;2.88;;;;;;;19.42;49.67;102102.56;5104370;28;20101;-63
2022/07/05 05:20:46;;;;;;;4.22;2.95;;;;;;;19.42;49.52;102110.75;5105050;28;20062;-64
2022/07/05 05:23:15;;;;;;;4.10;2.80;;;;;;;19.42;49.72;102113.47;5105265;28;20063;-62
2022/07/05 05:25:42;;;;;;;3.55;2.65;;;;;;;19.42;49.55;102110.75;5092234;28;20104;-62
2022/07/05 05:28:10;;;;;;;6.38;2.45;;;;;;;19.43;49.47;102115.13;5108635;28;20141;-62
2022/07/05 05:30:38;;;;;;;3.80;2.90;;;;;;;19.42;49.65;102114.28;5084650;28;20080;-63
2022/07/05 05:33:06;;;;;;;6.18;3.10;;;;;;;19.42;49.67;102121.66;5094755;28;20048;-63
2022/07/05 05:35:33;;;;;;;6.20;2.80;;;;;;;19.41;49.77;102115.38;5085137;28;20076;-62
2022/07/05 05:38:01;;;;;;;4.10;2.40;;;;;;;19.42;49.66;102108.00;5100979;28;20404;-63
2022/07/05 05:40:30;;;;;;;4.45;2.63;;;;;;;19.42;49.61;102117.03;5095198;28;20070;-63
2022/07/05 05:42:58;;;;;;;4.55;2.60;;;;;;;19.41;49.56;102112.63;5105196;28;20059;-63
2022/07/05 05:45:26;;;;;;;4.72;2.40;;;;;;;19.43;49.53;102115.13;5092002;28;20088;-63
2022/07/05 05:47:56;;;;;;;4.28;2.72;;;;;;;19.35;50.03;102110.91;5104321;28;20055;-62
2022/07/05 05:50:25;;;;;;;3.75;2.50;;;;;;;19.43;49.61;102126.03;5104701;28;20047;-61
2022/07/05 05:52:53;;;;;;;4.05;2.50;;;;;;;19.42;49.78;102124.38;5097851;28;20082;-61
2022/07/05 05:55:24;;;;;;;5.25;2.78;;;;;;;19.42;50.00;102127.09;5104719;28;20051;-62
2022/07/05 05:57:54;;;;;;;4.68;3.05;;;;;;;19.41;49.94;102126.28;5108246;28;20058;-62
2022/07/05 06:00:23;;;;;;;5.07;2.88;;;;;;;19.41;50.17;102136.34;5084154;28;20052;-61
2022/07/05 06:02:51;;;;;;;5.25;2.70;;;;;;;19.40;50.27;102140.97;5083942;28;20044;-61
2022/07/05 06:05:19;;;;;;;5.35;2.70;;;;;;;19.40;50.26;102140.16;5101648;28;20489;-61
2022/07/05 06:07:49;;;;;;;6.15;2.90;;;;;;;19.40;50.20;102140.16;5088589;28;20081;-62
2022/07/05 06:10:19;;;;;;;5.07;2.60;;;;;;;19.39;50.15;102144.78;5104337;28;20055;-62
2022/07/05 06:12:47;;;;;;;5.45;2.78;;;;;;;19.33;50.24;102132.16;5094619;28;20048;-63
2022/07/05 06:15:17;;;;;;;5.80;2.80;;;;;;;19.41;50.21;102152.72;5111924;28;20075;-61
2022/07/05 06:17:44;;;;;;;4.95;2.92;;;;;;;19.40;50.07;102151.06;5090349;28;20052;-62
2022/07/05 06:20:14;;;;;;;7.13;2.95;;;;;;;19.40;50.26;102156.50;5104111;28;20048;-62
2022/07/05 06:22:42;;;;;;;5.90;2.67;;;;;;;19.39;50.43;102150.25;5097708;28;20060;-61
2022/07/05 06:25:11;;;;;;;7.38;2.90;;;;;;;19.39;50.22;102152.97;5104550;28;20121;-61
2022/07/05 06:27:55;;;;;;;3.60;2.60;;;;;;;19.39;50.15;102144.78;5091362;28;20054;-62
2022/07/05 06:30:25;;;;;;;6.72;4.05;;;;;;;19.40;50.16;102143.72;5098020;28;20080;-62
2022/07/05 06:32:54;;;;;;;9.48;4.00;;;;;;;19.41;50.15;102145.34;5089221;28;20097;-61
2022/07/05 06:35:23;;;;;;;10.13;4.88;;;;;;;19.42;50.09;102147.00;5100678;28;20500;-61
2022/07/05 06:37:52;;;;;;;14.57;6.00;;;;;;;19.42;50.05;102146.19;5083526;28;20445;-61
2022/07/05 06:40:22;;;;;;;18.05;6.22;;;;;;;19.43;50.17;102156.84;5097043;28;20120;-62
2022/07/05 06:42:50;;;;;;;18.05;7.10;;;;;;;19.45;50.07;102157.41;5090179;28;20052;-62
2022/07/05 06:45:18;;;;;;;18.23;7.35;;;;;;;19.46;49.82;102153.63;5105205;28;20048;-62
2022/07/05 06:47:55;;;;;;;22.73;7.30;;;;;;;19.50;50.03;102152.03;5092972;28;20052;-63
2022/07/05 06:50:23;;;;;;;18.65;7.03;;;;;;;19.52;50.05;102154.56;5100562;28;20078;-62
2022/07/05 06:52:50;;;;;;;24.17;7.38;;;;;;;19.54;50.16;102154.31;5101948;28;20097;-63
2022/07/05 06:55:18;;;;;;;21.15;7.65;;;;;;;19.56;49.95;102161.16;5104175;28;20044;-64
2022/07/05 06:57:46;;;;;;;19.17;7.38;;;;;;;19.57;49.87;102157.34;5102892;28;20048;-61
2022/07/05 07:00:35;;;;;;;17.02;6.47;;;;;;;19.59;50.15;102165.28;5098955;28;20052;-61
2022/07/05 07:03:24;;;;;;;17.60;6.28;;;;;;;19.60;50.15;102159.59;5103329;28;20111;-61
2022/07/05 07:06:12;;;;;;;15.13;6.05;;;;;;;19.63;50.02;102164.53;5091830;28;20058;-62
2022/07/05 07:11:25;;;;;;;14.73;6.10;;;;;;;19.67;50.22;102159.41;5097058;28;20048;-61
2022/07/05 07:13:53;;;;;;;14.18;5.93;;;;;;;19.71;50.17;102163.28;5092683;28;20086;-61
2022/07/05 07:16:21;;;;;;;14.82;5.47;;;;;;;19.72;50.27;102171.22;5103512;28;20479;-61
2022/07/05 07:18:50;;;;;;;13.60;5.32;;;;;;;19.74;50.55;102171.78;5102525;28;20077;-63
2022/07/05 07:21:38;;;;;;;11.95;4.68;;;;;;;19.75;50.59;102173.44;5057973;28;20077;-61
2022/07/05 07:24:07;;;;;;;8.77;3.45;;;;;;;19.76;50.70;102174.28;5066997;28;20052;-61
2022/07/05 07:29:18;;;;;;;12.68;4.78;;;;;;;19.78;50.66;102170.22;5066284;28;20055;-62
2022/07/05 07:31:46;;;;;;;10.95;4.10;;;;;;;19.81;50.87;102177.06;5057846;28;20077;-62
2022/07/05 07:34:15;;;;;;;11.30;4.10;;;;;;;19.81;50.93;102177.06;5059435;28;20049;-62
2022/07/05 07:36:43;;;;;;;9.52;3.85;;;;;;;19.80;50.88;102178.97;5062832;28;20045;-62
2022/07/05 07:39:11;;;;;;;14.73;4.75;;;;;;;19.82;50.86;102186.91;5053204;28;20053;-62
2022/07/05 07:41:39;;;;;;;12.13;4.00;;;;;;;19.82;51.32;102186.91;5059022;28;20447;-62
2022/07/05 07:44:07;;;;;;;12.57;4.50;;;;;;;19.82;51.12;102186.91;5065175;28;20047;-62
2022/07/05 07:46:35;;;;;;;9.18;4.15;;;;;;;19.83;51.34;102194.84;5054530;28;20072;-62
2022/07/05 07:49:03;;;;;;;8.23;4.18;;;;;;;19.83;51.39;102191.28;5066288;28;20063;-62
2022/07/05 07:51:33;;;;;;;7.90;3.58;;;;;;;19.83;51.40;102186.66;5067401;28;20064;-62
2022/07/05 07:54:01;;;;;;;10.10;3.58;;;;;;;19.83;51.73;102183.09;5046963;28;20065;-62
2022/07/05 07:56:41;;;;;;;9.63;3.35;;;;;;;19.83;51.71;102188.56;5047844;28;20056;-63
2022/07/05 07:59:09;;;;;;;6.32;3.03;;;;;;;19.83;51.67;102178.47;5057267;28;20061;-62
2022/07/05 08:01:37;;;;;;;7.47;2.97;;;;;;;19.86;51.61;102182.59;5046222;28;20056;-62
2022/07/05 08:04:11;;;;;;;6.15;3.38;;;;;;;19.86;52.13;102190.78;5048191;28;20530;-62
2022/07/05 08:06:40;;;;;;;7.15;3.20;;;;;;;19.87;51.92;102192.44;5066327;28;20049;-62
2022/07/05 08:09:09;;;;;;;6.45;2.92;;;;;;;19.84;52.17;102182.03;5066158;28;20061;-63
2022/07/05 08:11:43;;;;;;;7.90;2.80;;;;;;;19.88;51.97;102188.63;5066490;28;20045;-62
2022/07/05 08:14:11;;;;;;;9.82;3.20;;;;;;;19.89;52.42;102184.84;5058282;28;20152;-62
2022/07/05 08:16:39;;;;;;;7.65;2.75;;;;;;;19.89;52.25;102187.56;5070242;28;20049;-62
2022/07/05 08:21:52;;;;;;;6.85;2.70;;;;;;;19.92;52.61;102191.69;5074213;28;20446;-62
2022/07/05 08:24:20;;;;;;;4.82;2.20;;;;;;;19.92;52.50;102191.69;5106047;28;20071;-62
2022/07/05 08:26:48;;;;;;;9.98;3.40;;;;;;;19.92;52.60;102192.50;5106154;28;20048;-63
2022/07/05 08:29:16;;;;;;;5.85;3.10;;;;;;;19.94;52.88;102184.06;5101710;28;20059;-63
2022/07/05 08:31:52;;;;;;;7.30;2.90;;;;;;;19.89;52.93;102176.66;5085210;28;20117;-63
2022/07/05 08:34:20;;;;;;;9.55;2.90;;;;;;;19.93;53.08;102190.59;5087445;28;20056;-62
2022/07/05 08:36:49;;;;;;;6.32;2.70;;;;;;;19.94;53.02;102189.53;5099910;28;20087;-62
2022/07/05 08:39:18;;;;;;;7.50;2.95;;;;;;;19.94;53.24;102187.63;5103373;28;20047;-61
2022/07/05 08:41:49;;;;;;;7.85;3.05;;;;;;;19.96;53.23;102185.47;5092394;28;20055;-61
2022/07/05 08:44:19;;;;;;;8.88;3.03;;;;;;;19.98;53.14;102187.94;5107166;28;20048;-61
2022/07/05 08:46:50;;;;;;;8.25;3.13;;;;;;;19.98;53.24;102180.59;5094223;28;20059;-61
2022/07/05 08:49:22;;;;;;;6.35;3.08;;;;;;;20.01;53.35;102192.91;5102140;28;20053;-61
2022/07/05 08:51:51;;;;;;;5.30;2.15;;;;;;;20.01;53.23;102182.81;5086782;28;20138;-61
2022/07/05 08:54:20;;;;;;;6.85;2.63;;;;;;;20.03;53.11;102183.38;5098560;28;20044;-61
2022/07/05 08:56:48;;;;;;;5.65;2.60;;;;;;;20.06;53.23;102192.97;5102311;28;20052;-62
2022/07/05 08:59:36;;;;;;;8.40;2.90;;;;;;;20.07;53.10;102183.72;5111643;28;20043;-62
2022/07/05 09:02:05;;;;;;;7.50;2.88;;;;;;;20.02;53.26;102170.81;5096033;28;20410;-62
2022/07/05 09:04:38;;;;;;;7.20;2.63;;;;;;;20.11;53.22;102190.31;5105202;28;20059;-61
2022/07/05 09:07:08;;;;;;;9.18;2.88;;;;;;;20.14;53.55;102189.81;5103148;28;20062;-62
2022/07/05 09:09:42;;;;;;;9.30;2.53;;;;;;;20.17;53.31;102192.03;5096375;28;20106;-63
2022/07/05 09:12:13;;;;;;;7.05;2.70;;;;;;;20.19;53.21;102192.59;5091802;28;20047;-63
2022/07/05 09:14:53;;;;;;;7.85;3.05;;;;;;;20.20;53.19;102186.06;5109921;28;20071;-63
2022/07/05 09:17:21;;;;;;;5.53;2.58;;;;;;;20.21;53.07;102189.63;5091169;28;20051;-62
2022/07/05 09:20:07;;;;;;;4.03;2.35;;;;;;;20.24;52.77;102195.41;5095769;28;20697;-62
2022/07/05 09:22:46;;;;;;;10.50;2.50;;;;;;;20.25;53.00;102193.50;5092330;28;20109;-62
2022/07/05 09:25:17;;;;;;;8.02;2.50;;;;;;;20.29;52.96;102194.63;5098747;28;20044;-63
2022/07/05 09:27:50;;;;;;;6.65;2.15;;;;;;;20.31;52.92;102192.47;5094888;28;20132;-62
2022/07/05 09:30:26;;;;;;;6.40;2.15;;;;;;;20.32;52.92;102189.50;5087197;28;20075;-62
2022/07/05 09:33:10;;;;;;;4.25;1.85;;;;;;;20.37;52.87;102200.47;5093505;28;20044;-64
2022/07/05 09:35:40;;;;;;;5.60;1.90;;;;;;;20.41;52.81;102196.19;5105002;28;20069;-62
2022/07/05 09:38:18;;;;;;;6.60;1.95;;;;;;;20.43;52.72;102195.94;5095961;28;20086;-63
2022/07/05 09:40:49;;;;;;;5.78;1.83;;;;;;;20.45;52.76;102180.13;5090227;28;20070;-63
2022/07/05 09:43:18;;;;;;;5.93;2.05;;;;;;;20.47;52.50;102191.63;5090393;28;20051;-62
2022/07/05 09:45:58;;;;;;;3.58;1.80;;;;;;;20.50;52.44;102179.34;5102176;28;20045;-63
2022/07/05 09:48:27;;;;;;;5.05;1.73;;;;;;;20.53;52.22;102182.41;5092321;28;20398;-62
2022/07/05 09:51:07;;;;;;;3.65;1.55;;;;;;;20.52;51.85;102169.81;5090635;28;20509;-62
2022/07/05 09:53:57;;;;;;;7.65;2.03;;;;;;;20.61;51.61;102181.13;5095059;28;20047;-62
2022/07/05 09:56:30;;;;;;;4.07;1.83;;;;;;;20.64;51.33;102172.41;5078936;28;20056;-62
2022/07/05 09:59:20;;;;;;;2.95;1.60;;;;;;;20.67;51.11;102182.84;5095558;28;20645;-62
2022/07/05 10:01:49;;;;;;;4.18;1.67;;;;;;;20.70;50.74;102174.13;5103575;28;20123;-63
2022/07/05 10:04:17;;;;;;;5.30;1.70;;;;;;;20.71;50.65;102165.66;5085810;28;20166;-63
2022/07/05 10:06:45;;;;;;;6.10;1.85;;;;;;;20.74;50.76;102158.88;5093517;28;20048;-63
2022/07/05 10:09:14;;;;;;;4.30;1.95;;;;;;;20.77;50.78;102161.06;5096706;28;20116;-62
2022/07/05 10:11:46;;;;;;;2.60;1.60;;;;;;;20.79;50.43;102162.47;5093545;28;20045;-62
2022/07/05 10:14:19;;;;;;;6.93;1.95;;;;;;;20.82;50.33;102166.56;5106414;28;20059;-63
2022/07/05 10:16:53;;;;;;;7.15;1.75;;;;;;;20.76;50.52;102148.50;5091287;28;20094;-62
2022/07/05 10:19:22;;;;;;;5.60;2.15;;;;;;;20.88;50.45;102165.53;5092510;28;20066;-62
2022/07/05 10:21:51;;;;;;;5.18;2.38;;;;;;;20.93;50.57;102167.50;5101539;28;20061;-62
2022/07/05 10:24:39;;;;;;;3.63;1.70;;;;;;;20.96;50.54;102162.31;5093930;28;20051;-63
2022/07/05 10:27:08;;;;;;;4.57;1.77;;;;;;;21.01;50.41;102167.84;5094663;28;20048;-63
2022/07/05 10:29:40;;;;;;;6.05;1.65;;;;;;;21.04;50.19;102164.59;5092777;28;20072;-64
2022/07/05 10:32:10;;;;;;;2.85;1.67;;;;;;;21.10;50.24;102171.75;5107381;28;20052;-64
2022/07/05 10:34:40;;;;;;;6.38;2.72;;;;;;;21.09;50.05;102164.63;5088954;28;20214;-64
2022/07/05 10:37:28;;;;;;;3.92;2.20;;;;;;;21.08;49.85;102157.53;5091860;28;20155;-62
2022/07/05 10:40:05;;;;;;;7.65;1.70;;;;;;;21.14;49.73;102174.78;5089470;28;20048;-63
2022/07/05 10:42:39;;;;;;;3.40;1.50;;;;;;;21.14;49.36;102180.25;5099600;28;20047;-63
2022/07/05 10:45:24;;;;;;;3.03;1.17;;;;;;;21.15;49.55;102181.09;5096895;28;20127;-62
2022/07/05 10:48:18;;;;;;;4.20;2.22;;;;;;;21.16;49.46;102180.00;5097801;28;20055;-63
2022/07/05 10:50:49;;;;;;;5.47;2.13;;;;;;;21.15;48.54;102176.44;5095164;28;20051;-62
2022/07/05 10:53:19;;;;;;;3.42;1.73;;;;;;;21.13;49.06;102175.88;5092850;28;20055;-62
2022/07/05 10:55:57;;;;;;;2.65;1.83;;;;;;;21.13;49.07;102181.34;5086856;28;20153;-62
2022/07/05 10:58:33;;;;;;;3.58;1.60;;;;;;;21.15;49.08;102181.91;5090283;28;20064;-63
2022/07/05 11:01:34;;;;;;;7.22;2.65;;;;;;;21.18;49.00;102183.28;5102378;28;20048;-62
2022/07/05 11:04:29;;;;;;;7.70;2.08;;;;;;;21.21;48.96;102182.78;5086003;28;20044;-63
2022/07/05 11:06:58;;;;;;;7.25;2.40;;;;;;;21.22;48.72;102182.53;5099102;28;20394;-63
2022/07/05 11:09:26;;;;;;;4.45;1.88;;;;;;;21.15;48.99;102170.97;5096857;28;20130;-63
2022/07/05 11:12:12;;;;;;;3.22;1.60;;;;;;;21.24;48.60;102174.91;5106295;28;20056;-63
2022/07/05 11:15:06;;;;;;;3.58;1.92;;;;;;;21.31;48.82;102171.97;5095855;28;20070;-63
2022/07/05 11:20:31;;;;;;;6.15;2.10;;;;;;;21.36;48.77;102174.72;5092577;28;20113;-63
2022/07/05 11:23:11;;;;;;;2.97;1.70;;;;;;;21.43;48.19;102181.63;5098026;28;20040;-64
2022/07/05 11:25:42;;;;;;;5.28;1.90;;;;;;;21.45;47.96;102189.56;5090210;28;20052;-65
2022/07/05 11:28:17;;;;;;;4.00;1.73;;;;;;;21.46;48.21;102182.19;5092897;28;20107;-64
2022/07/05 11:30:52;;;;;;;4.88;1.80;;;;;;;21.48;48.42;102180.84;5098591;28;20047;-64
2022/07/05 11:33:37;;;;;;;5.40;1.98;;;;;;;21.48;47.47;102166.34;5087914;28;20488;-63
2022/07/05 11:36:08;;;;;;;3.25;1.80;;;;;;;21.51;47.92;102168.56;5091891;28;20082;-64
2022/07/05 11:39:09;;;;;;;5.80;1.77;;;;;;;21.54;48.14;102159.81;5093255;28;20146;-62
2022/07/05 11:41:43;;;;;;;3.80;1.48;;;;;;;21.56;47.61;102163.94;5099533;28;20051;-61
2022/07/05 11:44:12;;;;;;;4.85;2.00;;;;;;;21.59;47.48;102170.78;5093987;28;20047;-63
2022/07/05 11:46:41;;;;;;;3.22;1.42;;;;;;;21.59;47.27;102157.94;5096495;28;20045;-62
2022/07/05 11:49:23;;;;;;;;;;;;;;;21.67;46.57;102168.38;5097076;28;20044;-63
2022/07/05 11:51:58;;;;;;;4.72;1.67;;;;;;;21.67;45.29;102160.19;5098679;28;19924;-63